3R7

Jennings Airport

Jennings, Louisiana, USA
METAR K3R7 182215Z AUTO 26003KT 10SM CLR 33/23 A2993 RMK AO2 LTG DSNT SE T03260234
Observed Flight Rules
Jul-18 @ 22:15 UTC (10 minutes ago) Visual Flight Rules
Wind Visibility Clouds
260° at 3 knots 10 miles
  • Clear skies
Temperatures Readings
Current 33°C / 91°F
Dewpoint 23°C / 73°F
Humidity 56%
Altimeter 29.93" Hg
Pressure 1014 hPa
Elevation 7
METAR K3R7 182215Z AUTO 26003KT 10SM CLR 33/23 A2993 RMK AO2 LTG DSNT SE T03260234
Observed Flight Rules
Jul-18 @ 22:15 UTC
(10 minutes ago)
VFR
Wind Visibility
260° at 3 knots 10 miles
Clouds
  • Clear skies
Temperature Dewpoint
33°C / 91°F 23°C / 73°F
Humidity Altimeter Pressure
56% 29.93" Hg 1014 hPa